TimeEDT,TemperatureF,Dew PointF,Humidity,Sea Level PressureIn,VisibilityMPH,Wind Direction,Wind SpeedMPH,Gust SpeedMPH,PrecipitationIn,Events,Conditions,WindDirDegrees,DateUTC
12:53 AM,69.1,68.0,96,29.77,6.0,West,5.8,-,N/A,,Scattered Clouds,280,2013-03-25 04:53:00
1:53 AM,68.0,66.0,93,29.78,8.0,WNW,8.1,-,N/A,,Partly Cloudy,290,2013-03-25 05:53:00
2:53 AM,69.1,64.9,87,29.78,10.0,WNW,11.5,-,N/A,,Clear,300,2013-03-25 06:53:00
3:53 AM,66.9,63.0,87,29.78,10.0,NW,10.4,-,N/A,,Clear,310,2013-03-25 07:53:00
4:53 AM,66.0,62.1,87,29.79,10.0,NNW,11.5,20.7,N/A,,Partly Cloudy,330,2013-03-25 08:53:00
5:53 AM,63.0,54.0,72,29.80,10.0,NW,10.4,-,N/A,,Clear,320,2013-03-25 09:53:00
6:53 AM,63.0,55.0,75,29.82,10.0,NNW,15.0,20.7,N/A,,Clear,330,2013-03-25 10:53:00
7:53 AM,62.1,52.0,70,29.85,10.0,NNW,11.5,-,N/A,,Clear,330,2013-03-25 11:53:00
8:53 AM,63.0,50.0,63,29.88,10.0,North,13.8,23.0,N/A,,Clear,350,2013-03-25 12:53:00
9:53 AM,64.0,48.0,56,29.92,10.0,NNW,19.6,26.5,N/A,,Clear,330,2013-03-25 13:53:00
10:53 AM,64.9,45.0,48,29.96,10.0,NNW,21.9,29.9,N/A,,Clear,330,2013-03-25 14:53:00
11:53 AM,64.9,43.0,45,29.97,10.0,NNW,16.1,23.0,N/A,,Clear,330,2013-03-25 15:53:00
12:53 PM,66.9,43.0,42,29.96,10.0,NNW,15.0,21.9,N/A,,Clear,330,2013-03-25 16:53:00
1:53 PM,66.9,43.0,42,29.94,10.0,NNW,16.1,24.2,N/A,,Clear,330,2013-03-25 17:53:00
2:53 PM,66.9,43.0,42,29.94,10.0,NNW,15.0,28.8,N/A,,Clear,340,2013-03-25 18:53:00
3:53 PM,66.0,39.9,38,29.94,10.0,NW,16.1,23.0,N/A,,Clear,320,2013-03-25 19:53:00
4:53 PM,64.9,36.0,34,29.94,10.0,North,11.5,21.9,N/A,,Clear,350,2013-03-25 20:53:00
5:53 PM,64.0,37.0,37,29.94,10.0,NNW,11.5,21.9,N/A,,Clear,330,2013-03-25 21:53:00
6:53 PM,60.1,37.0,42,29.97,10.0,NNW,12.7,23.0,N/A,,Clear,340,2013-03-25 22:53:00
7:53 PM,57.0,39.9,53,29.99,10.0,NW,10.4,-,N/A,,Clear,320,2013-03-25 23:53:00
8:53 PM,55.9,41.0,57,30.02,10.0,NW,6.9,-,N/A,,Clear,320,2013-03-26 00:53:00
9:53 PM,55.0,42.1,62,30.04,10.0,NW,8.1,-,N/A,,Clear,310,2013-03-26 01:53:00
10:53 PM,54.0,42.1,64,30.05,10.0,NW,5.8,-,N/A,,Clear,320,2013-03-26 02:53:00
11:53 PM,55.9,44.1,64,30.06,10.0,NW,8.1,-,N/A,,Clear,320,2013-03-26 03:53:00